sensor_id;sensor_type;location;lat;lon;timestamp;pressure;altitude;pressure_sealevel;temperature;humidity
23953;BME280;12163;49.316;6.092;2023-04-19T00:01:15;100010.13;;;10.80;65.47
23953;BME280;12163;49.316;6.092;2023-04-19T00:03:41;100007.44;;;10.75;65.73
23953;BME280;12163;49.316;6.092;2023-04-19T00:06:08;100009.06;;;10.71;65.93
23953;BME280;12163;49.316;6.092;2023-04-19T00:08:35;100003.94;;;10.69;65.75
23953;BME280;12163;49.316;6.092;2023-04-19T00:11:02;100006.09;;;10.67;66.11
23953;BME280;12163;49.316;6.092;2023-04-19T00:13:28;100004.22;;;10.63;66.16
23953;BME280;12163;49.316;6.092;2023-04-19T00:15:55;100003.97;;;10.59;66.55
23953;BME280;12163;49.316;6.092;2023-04-19T00:18:21;99992.38;;;10.54;66.48
23953;BME280;12163;49.316;6.092;2023-04-19T00:20:48;99998.03;;;10.52;67.11
23953;BME280;12163;49.316;6.092;2023-04-19T00:23:15;99994.81;;;10.50;67.26
23953;BME280;12163;49.316;6.092;2023-04-19T00:25:41;99999.41;;;10.50;67.25
23953;BME280;12163;49.316;6.092;2023-04-19T00:28:08;99989.97;;;10.47;67.26
23953;BME280;12163;49.316;6.092;2023-04-19T00:30:34;100000.22;;;10.45;67.13
23953;BME280;12163;49.316;6.092;2023-04-19T00:33:01;99999.41;;;10.40;67.34
23953;BME280;12163;49.316;6.092;2023-04-19T00:35:28;99995.13;;;10.34;67.65
23953;BME280;12163;49.316;6.092;2023-04-19T00:37:54;99991.34;;;10.30;67.78
23953;BME280;12163;49.316;6.092;2023-04-19T00:40:21;99989.47;;;10.25;67.66
23953;BME280;12163;49.316;6.092;2023-04-19T00:42:47;99993.00;;;10.21;68.03
23953;BME280;12163;49.316;6.092;2023-04-19T00:45:14;99994.59;;;10.17;68.15
23953;BME280;12163;49.316;6.092;2023-04-19T00:47:41;99995.44;;;10.12;68.16
23953;BME280;12163;49.316;6.092;2023-04-19T00:50:08;99996.25;;;10.08;68.68
23953;BME280;12163;49.316;6.092;2023-04-19T00:52:34;99997.03;;;10.03;68.70
23953;BME280;12163;49.316;6.092;2023-04-19T00:55:01;99994.06;;;10.00;68.84
23953;BME280;12163;49.316;6.092;2023-04-19T00:57:30;99989.19;;;9.97;68.78
23953;BME280;12163;49.316;6.092;2023-04-19T00:59:56;99991.34;;;9.95;69.11
23953;BME280;12163;49.316;6.092;2023-04-19T01:02:24;99984.88;;;9.91;69.26
23953;BME280;12163;49.316;6.092;2023-04-19T01:04:51;99986.50;;;9.92;69.51
23953;BME280;12163;49.316;6.092;2023-04-19T01:07:18;99988.13;;;9.93;69.54
23953;BME280;12163;49.316;6.092;2023-04-19T01:09:45;99985.41;;;9.93;69.68
23953;BME280;12163;49.316;6.092;2023-04-19T01:12:12;99982.72;;;9.93;69.70
23953;BME280;12163;49.316;6.092;2023-04-19T01:14:39;99979.50;;;9.91;69.70
23953;BME280;12163;49.316;6.092;2023-04-19T01:17:06;99983.00;;;9.92;69.89
23953;BME280;12163;49.316;6.092;2023-04-19T01:19:34;99985.72;;;9.92;69.96
23953;BME280;12163;49.316;6.092;2023-04-19T01:22:01;99983.81;;;9.92;70.17
23953;BME280;12163;49.316;6.092;2023-04-19T01:24:29;99974.09;;;9.91;70.11
23953;BME280;12163;49.316;6.092;2023-04-19T01:26:56;99979.50;;;9.91;70.25
23953;BME280;12163;49.316;6.092;2023-04-19T01:29:22;99980.31;;;9.92;70.14
23953;BME280;12163;49.316;6.092;2023-04-19T01:31:49;99978.69;;;9.91;70.23
23953;BME280;12163;49.316;6.092;2023-04-19T01:34:19;99977.09;;;9.90;70.24
23953;BME280;12163;49.316;6.092;2023-04-19T01:36:46;99981.66;;;9.89;70.27
23953;BME280;12163;49.316;6.092;2023-04-19T01:39:12;99986.50;;;9.87;70.34
23953;BME280;12163;49.316;6.092;2023-04-19T01:41:39;99974.13;;;9.81;70.63
23953;BME280;12163;49.316;6.092;2023-04-19T01:44:06;99981.38;;;9.76;70.65
23953;BME280;12163;49.316;6.092;2023-04-19T01:46:32;99976.25;;;9.69;70.55
23953;BME280;12163;49.316;6.092;2023-04-19T01:48:59;99970.63;;;9.66;71.05
23953;BME280;12163;49.316;6.092;2023-04-19T01:51:26;99967.09;;;9.60;71.03
23953;BME280;12163;49.316;6.092;2023-04-19T01:53:53;99972.19;;;9.57;71.38
23953;BME280;12163;49.316;6.092;2023-04-19T01:56:20;99975.69;;;9.52;71.48
23953;BME280;12163;49.316;6.092;2023-04-19T01:58:49;99976.22;;;9.49;71.59
23953;BME280;12163;49.316;6.092;2023-04-19T02:01:16;99966.53;;;9.43;71.69
23953;BME280;12163;49.316;6.092;2023-04-19T02:03:43;99959.00;;;9.35;71.67
23953;BME280;12163;49.316;6.092;2023-04-19T02:06:11;99959.25;;;9.34;72.14
23953;BME280;12163;49.316;6.092;2023-04-19T02:08:38;99963.84;;;9.33;72.29
23953;BME280;12163;49.316;6.092;2023-04-19T02:11:09;99957.88;;;9.31;72.35
23953;BME280;12163;49.316;6.092;2023-04-19T02:13:36;99965.97;;;9.31;72.62
23953;BME280;12163;49.316;6.092;2023-04-19T02:16:03;99960.56;;;9.26;72.68
23953;BME280;12163;49.316;6.092;2023-04-19T02:18:31;99958.69;;;9.22;72.58
23953;BME280;12163;49.316;6.092;2023-04-19T02:20:59;99958.66;;;9.17;72.63
23953;BME280;12163;49.316;6.092;2023-04-19T02:23:25;99963.25;;;9.11;73.05
23953;BME280;12163;49.316;6.092;2023-04-19T02:25:52;99956.50;;;9.09;72.89
23953;BME280;12163;49.316;6.092;2023-04-19T02:28:19;99958.34;;;9.03;73.34
23953;BME280;12163;49.316;6.092;2023-04-19T02:30:46;99959.16;;;8.99;73.03
23953;BME280;12163;49.316;6.092;2023-04-19T02:33:13;99959.97;;;8.99;73.76
23953;BME280;12163;49.316;6.092;2023-04-19T02:35:39;99961.03;;;8.98;73.88
23953;BME280;12163;49.316;6.092;2023-04-19T02:38:06;99967.50;;;8.97;73.93
23953;BME280;12163;49.316;6.092;2023-04-19T02:40:32;99959.44;;;9.02;74.14
23953;BME280;12163;49.316;6.092;2023-04-19T02:42:59;99958.94;;;9.10;74.49
23953;BME280;12163;49.316;6.092;2023-04-19T02:45:25;99964.34;;;9.15;73.98
23953;BME280;12163;49.316;6.092;2023-04-19T02:47:52;99962.19;;;9.17;73.94
23953;BME280;12163;49.316;6.092;2023-04-19T02:50:19;99965.94;;;9.16;74.07
23953;BME280;12163;49.316;6.092;2023-04-19T02:52:45;99957.59;;;9.18;74.20
23953;BME280;12163;49.316;6.092;2023-04-19T02:55:12;99963.78;;;9.18;73.86
23953;BME280;12163;49.316;6.092;2023-04-19T02:57:38;99958.66;;;9.17;73.76
23953;BME280;12163;49.316;6.092;2023-04-19T03:00:06;99953.03;;;9.18;74.17
23953;BME280;12163;49.316;6.092;2023-04-19T03:02:34;99961.66;;;9.20;74.05
23953;BME280;12163;49.316;6.092;2023-04-19T03:05:01;99957.88;;;9.21;73.94
23953;BME280;12163;49.316;6.092;2023-04-19T03:07:27;99959.50;;;9.22;74.03
23953;BME280;12163;49.316;6.092;2023-04-19T03:09:54;99956.25;;;9.20;73.84
23953;BME280;12163;49.316;6.092;2023-04-19T03:12:20;99958.41;;;9.18;74.41
23953;BME280;12163;49.316;6.092;2023-04-19T03:14:47;99946.81;;;9.18;74.35
23953;BME280;12163;49.316;6.092;2023-04-19T03:17:14;99950.88;;;9.20;74.16
23953;BME280;12163;49.316;6.092;2023-04-19T03:19:41;99944.41;;;9.21;74.25
23953;BME280;12163;49.316;6.092;2023-04-19T03:22:08;99940.66;;;9.22;74.18
23953;BME280;12163;49.316;6.092;2023-04-19T03:24:34;99948.19;;;9.25;74.11
23953;BME280;12163;49.316;6.092;2023-04-19T03:27:03;99942.00;;;9.25;74.11
23953;BME280;12163;49.316;6.092;2023-04-19T03:29:30;99941.19;;;9.19;74.10
23953;BME280;12163;49.316;6.092;2023-04-19T03:31:56;99932.03;;;9.15;74.17
23953;BME280;12163;49.316;6.092;2023-04-19T03:34:23;99937.94;;;9.12;74.38
23953;BME280;12163;49.316;6.092;2023-04-19T03:36:49;99932.03;;;9.10;74.17
23953;BME280;12163;49.316;6.092;2023-04-19T03:39:16;99939.53;;;9.08;74.36
23953;BME280;12163;49.316;6.092;2023-04-19T03:41:42;99938.97;;;9.06;74.22
23953;BME280;12163;49.316;6.092;2023-04-19T03:44:09;99930.38;;;9.04;74.29
23953;BME280;12163;49.316;6.092;2023-04-19T03:46:35;99941.13;;;9.04;74.75
23953;BME280;12163;49.316;6.092;2023-04-19T03:49:02;99931.97;;;9.00;74.68
23953;BME280;12163;49.316;6.092;2023-04-19T03:51:29;99934.13;;;8.98;74.50
23953;BME280;12163;49.316;6.092;2023-04-19T03:53:56;99927.41;;;9.01;74.81
23953;BME280;12163;49.316;6.092;2023-04-19T03:56:23;99932.28;;;9.04;75.19
23953;BME280;12163;49.316;6.092;2023-04-19T03:58:50;99929.03;;;9.07;75.17
23953;BME280;12163;49.316;6.092;2023-04-19T04:01:20;99921.25;;;9.10;75.05
23953;BME280;12163;49.316;6.092;2023-04-19T04:03:47;99926.88;;;9.14;74.79
23953;BME280;12163;49.316;6.092;2023-04-19T04:06:14;99928.78;;;9.18;75.01
23953;BME280;12163;49.316;6.092;2023-04-19T04:08:41;99923.41;;;9.23;74.74
23953;BME280;12163;49.316;6.092;2023-04-19T04:11:08;99920.47;;;9.25;74.70
23953;BME280;12163;49.316;6.092;2023-04-19T04:13:34;99926.09;;;9.28;74.91
23953;BME280;12163;49.316;6.092;2023-04-19T04:16:01;99916.94;;;9.29;74.78
23953;BME280;12163;49.316;6.092;2023-04-19T04:18:27;99925.03;;;9.29;74.44
23953;BME280;12163;49.316;6.092;2023-04-19T04:20:54;99919.94;;;9.28;74.48
23953;BME280;12163;49.316;6.092;2023-04-19T04:23:21;99929.09;;;9.27;74.76
23953;BME280;12163;49.316;6.092;2023-04-19T04:25:56;99928.78;;;9.23;74.70
23953;BME280;12163;49.316;6.092;2023-04-19T04:28:24;99925.56;;;9.21;74.65
23953;BME280;12163;49.316;6.092;2023-04-19T04:30:51;99919.91;;;9.18;74.84
23953;BME280;12163;49.316;6.092;2023-04-19T04:33:17;99927.72;;;9.14;75.08
23953;BME280;12163;49.316;6.092;2023-04-19T04:35:44;99925.03;;;9.14;75.36
23953;BME280;12163;49.316;6.092;2023-04-19T04:38:10;99923.41;;;9.13;75.18
23953;BME280;12163;49.316;6.092;2023-04-19T04:40:50;99922.88;;;9.11;75.40
23953;BME280;12163;49.316;6.092;2023-04-19T04:43:24;99931.75;;;9.12;75.07
23953;BME280;12163;49.316;6.092;2023-04-19T04:45:51;99933.34;;;9.13;75.48
23953;BME280;12163;49.316;6.092;2023-04-19T04:48:21;99933.09;;;9.14;75.43
23953;BME280;12163;49.316;6.092;2023-04-19T04:50:47;99934.44;;;9.17;75.72
23953;BME280;12163;49.316;6.092;2023-04-19T04:53:14;99929.38;;;9.35;75.89
23953;BME280;12163;49.316;6.092;2023-04-19T04:55:41;99926.13;;;9.83;76.03
23953;BME280;12163;49.316;6.092;2023-04-19T04:58:07;99926.56;;;10.40;75.45
23953;BME280;12163;49.316;6.092;2023-04-19T05:00:34;99925.31;;;10.86;73.79
23953;BME280;12163;49.316;6.092;2023-04-19T05:03:01;99921.84;;;11.24;72.93
23953;BME280;12163;49.316;6.092;2023-04-19T05:05:28;99922.72;;;11.53;70.49
23953;BME280;12163;49.316;6.092;2023-04-19T05:07:55;99929.34;;;11.75;70.13
23953;BME280;12163;49.316;6.092;2023-04-19T05:10:22;99924.56;;;11.95;69.66
23953;BME280;12163;49.316;6.092;2023-04-19T05:12:48;99921.00;;;12.00;69.12
23953;BME280;12163;49.316;6.092;2023-04-19T05:15:15;99923.38;;;12.06;68.56
23953;BME280;12163;49.316;6.092;2023-04-19T05:17:42;99914.97;;;12.08;67.37
23953;BME280;12163;49.316;6.092;2023-04-19T05:20:09;99921.28;;;11.98;67.80
23953;BME280;12163;49.316;6.092;2023-04-19T05:22:36;99925.31;;;12.01;68.21
23953;BME280;12163;49.316;6.092;2023-04-19T05:25:03;99914.13;;;12.12;68.19
23953;BME280;12163;49.316;6.092;2023-04-19T05:27:30;99921.56;;;12.25;67.35
23953;BME280;12163;49.316;6.092;2023-04-19T05:29:56;99924.44;;;12.34;67.07
23953;BME280;12163;49.316;6.092;2023-04-19T05:32:23;99928.38;;;12.46;66.75
23953;BME280;12163;49.316;6.092;2023-04-19T05:34:49;99928.69;;;12.63;66.04
23953;BME280;12163;49.316;6.092;2023-04-19T05:37:16;99919.13;;;12.71;65.91
23953;BME280;12163;49.316;6.092;2023-04-19T05:39:43;99932.81;;;12.79;65.43
23953;BME280;12163;49.316;6.092;2023-04-19T05:42:10;99924.13;;;12.82;65.16
23953;BME280;12163;49.316;6.092;2023-04-19T05:44:37;99936.81;;;12.87;64.30
23953;BME280;12163;49.316;6.092;2023-04-19T05:47:03;99936.53;;;12.88;64.85
23953;BME280;12163;49.316;6.092;2023-04-19T05:49:30;99934.78;;;12.97;64.18
23953;BME280;12163;49.316;6.092;2023-04-19T05:51:56;99939.03;;;13.03;64.13
23953;BME280;12163;49.316;6.092;2023-04-19T05:54:23;99933.28;;;13.10;63.50
23953;BME280;12163;49.316;6.092;2023-04-19T05:56:50;99929.81;;;13.04;63.59
23953;BME280;12163;49.316;6.092;2023-04-19T05:59:16;99937.34;;;13.07;63.46
23953;BME280;12163;49.316;6.092;2023-04-19T06:01:43;99935.47;;;13.08;62.93
23953;BME280;12163;49.316;6.092;2023-04-19T06:04:10;99934.09;;;13.10;62.52
23953;BME280;12163;49.316;6.092;2023-04-19T06:06:36;99936.22;;;13.13;62.44
23953;BME280;12163;49.316;6.092;2023-04-19T06:09:03;99938.34;;;13.16;62.42
23953;BME280;12163;49.316;6.092;2023-04-19T06:11:30;99937.75;;;13.19;63.01
23953;BME280;12163;49.316;6.092;2023-04-19T06:14:09;99937.75;;;13.19;62.68
23953;BME280;12163;49.316;6.092;2023-04-19T06:16:36;99930.94;;;13.22;62.51
23953;BME280;12163;49.316;6.092;2023-04-19T06:19:02;99940.69;;;13.23;62.08
23953;BME280;12163;49.316;6.092;2023-04-19T06:21:30;99938.34;;;13.16;61.75
23953;BME280;12163;49.316;6.092;2023-04-19T06:23:57;99942.06;;;13.02;61.94
23953;BME280;12163;49.316;6.092;2023-04-19T06:26:23;99935.94;;;12.91;62.95
23953;BME280;12163;49.316;6.092;2023-04-19T06:28:50;99945.59;;;12.79;63.48
23953;BME280;12163;49.316;6.092;2023-04-19T06:31:17;99942.06;;;12.78;63.19
23953;BME280;12163;49.316;6.092;2023-04-19T06:33:43;99933.84;;;12.83;63.44
23953;BME280;12163;49.316;6.092;2023-04-19T06:36:11;99935.13;;;12.91;62.98
23953;BME280;12163;49.316;6.092;2023-04-19T06:38:37;99932.16;;;12.92;63.29
23953;BME280;12163;49.316;6.092;2023-04-19T06:41:05;99936.34;;;13.03;62.44
23953;BME280;12163;49.316;6.092;2023-04-19T06:43:31;99935.81;;;13.01;62.42
23953;BME280;12163;49.316;6.092;2023-04-19T06:46:02;99944.25;;;13.00;62.91
23953;BME280;12163;49.316;6.092;2023-04-19T06:48:30;99946.00;;;13.09;63.45
23953;BME280;12163;49.316;6.092;2023-04-19T06:50:56;99947.84;;;13.14;62.60
23953;BME280;12163;49.316;6.092;2023-04-19T06:53:23;99951.22;;;13.24;62.27
23953;BME280;12163;49.316;6.092;2023-04-19T06:55:57;99945.78;;;13.24;62.54
23953;BME280;12163;49.316;6.092;2023-04-19T06:58:26;99945.88;;;13.38;62.46
23953;BME280;12163;49.316;6.092;2023-04-19T07:00:52;99950.94;;;13.44;62.33
23953;BME280;12163;49.316;6.092;2023-04-19T07:03:19;99941.00;;;13.53;62.20
23953;BME280;12163;49.316;6.092;2023-04-19T07:05:47;99949.53;;;13.65;61.38
23953;BME280;12163;49.316;6.092;2023-04-19T07:08:14;99949.16;;;13.53;61.10
23953;BME280;12163;49.316;6.092;2023-04-19T07:10:41;99949.81;;;13.45;61.65
23953;BME280;12163;49.316;6.092;2023-04-19T07:13:12;99942.19;;;13.47;61.53
23953;BME280;12163;49.316;6.092;2023-04-19T07:15:38;99948.59;;;13.56;61.82
23953;BME280;12163;49.316;6.092;2023-04-19T07:18:05;99940.00;;;13.67;61.15
23953;BME280;12163;49.316;6.092;2023-04-19T07:20:32;99934.78;;;13.71;60.52
23953;BME280;12163;49.316;6.092;2023-04-19T07:22:59;99935.97;;;13.65;61.00
23953;BME280;12163;49.316;6.092;2023-04-19T07:25:26;99947.09;;;13.63;60.54
23953;BME280;12163;49.316;6.092;2023-04-19T07:27:54;99945.13;;;13.69;61.42
23953;BME280;12163;49.316;6.092;2023-04-19T07:30:21;99942.44;;;13.82;61.12
23953;BME280;12163;49.316;6.092;2023-04-19T07:32:47;99936.03;;;13.92;60.84
23953;BME280;12163;49.316;6.092;2023-04-19T07:35:17;99944.09;;;13.97;60.01
23953;BME280;12163;49.316;6.092;2023-04-19T07:37:45;99941.09;;;13.98;60.45
23953;BME280;12163;49.316;6.092;2023-04-19T07:40:11;99937.00;;;14.01;60.50
23953;BME280;12163;49.316;6.092;2023-04-19T07:42:38;99935.88;;;14.02;60.37
23953;BME280;12163;49.316;6.092;2023-04-19T07:45:05;99939.09;;;14.04;60.47
23953;BME280;12163;49.316;6.092;2023-04-19T07:47:32;99932.06;;;14.03;60.47
23953;BME280;12163;49.316;6.092;2023-04-19T07:49:58;99933.69;;;14.04;59.78
23953;BME280;12163;49.316;6.092;2023-04-19T07:52:25;99934.84;;;13.98;60.37
23953;BME280;12163;49.316;6.092;2023-04-19T07:54:52;99934.28;;;14.01;59.71
23953;BME280;12163;49.316;6.092;2023-04-19T07:57:18;99924.63;;;14.08;59.85
23953;BME280;12163;49.316;6.092;2023-04-19T07:59:45;99932.31;;;14.20;59.93
23953;BME280;12163;49.316;6.092;2023-04-19T08:02:12;99933.66;;;14.36;59.67
23953;BME280;12163;49.316;6.092;2023-04-19T08:04:38;99928.66;;;14.43;58.88
23953;BME280;12163;49.316;6.092;2023-04-19T08:07:05;99921.78;;;14.45;58.84
23953;BME280;12163;49.316;6.092;2023-04-19T08:09:32;99921.09;;;14.40;58.53
23953;BME280;12163;49.316;6.092;2023-04-19T08:11:59;99926.13;;;14.33;58.90
23953;BME280;12163;49.316;6.092;2023-04-19T08:14:27;99928.81;;;14.33;58.35
23953;BME280;12163;49.316;6.092;2023-04-19T08:17:09;99924.00;;;14.30;58.33
23953;BME280;12163;49.316;6.092;2023-04-19T08:19:53;99918.69;;;14.25;59.33
23953;BME280;12163;49.316;6.092;2023-04-19T08:22:20;99921.69;;;14.23;59.18
23953;BME280;12163;49.316;6.092;2023-04-19T08:24:50;99925.72;;;14.26;58.85
23953;BME280;12163;49.316;6.092;2023-04-19T08:27:17;99917.06;;;14.24;59.12
23953;BME280;12163;49.316;6.092;2023-04-19T08:29:44;99918.56;;;14.16;58.17
23953;BME280;12163;49.316;6.092;2023-04-19T08:32:12;99916.19;;;14.10;58.87
23953;BME280;12163;49.316;6.092;2023-04-19T08:34:39;99919.41;;;14.12;59.30
23953;BME280;12163;49.316;6.092;2023-04-19T08:37:06;99918.09;;;14.09;59.12
23953;BME280;12163;49.316;6.092;2023-04-19T08:39:33;99914.50;;;14.14;58.74
23953;BME280;12163;49.316;6.092;2023-04-19T08:42:06;99915.03;;;14.16;58.72
23953;BME280;12163;49.316;6.092;2023-04-19T08:44:49;99910.53;;;14.25;58.58
23953;BME280;12163;49.316;6.092;2023-04-19T08:47:37;99914.16;;;14.34;58.41
23953;BME280;12163;49.316;6.092;2023-04-19T08:50:22;99918.06;;;14.41;58.16
23953;BME280;12163;49.316;6.092;2023-04-19T08:53:01;99904.41;;;14.46;57.97
23953;BME280;12163;49.316;6.092;2023-04-19T08:55:48;99906.22;;;14.51;57.82
23953;BME280;12163;49.316;6.092;2023-04-19T08:58:35;99907.22;;;14.55;57.78
23953;BME280;12163;49.316;6.092;2023-04-19T09:01:21;99901.56;;;14.65;57.30
23953;BME280;12163;49.316;6.092;2023-04-19T09:04:05;99894.34;;;14.74;57.44
23953;BME280;12163;49.316;6.092;2023-04-19T09:06:53;99897.72;;;14.93;57.42
23953;BME280;12163;49.316;6.092;2023-04-19T09:09:22;99898.47;;;15.07;56.07
23953;BME280;12163;49.316;6.092;2023-04-19T09:12:02;99899.88;;;15.18;55.71
23953;BME280;12163;49.316;6.092;2023-04-19T09:14:29;99900.06;;;15.34;55.39
23953;BME280;12163;49.316;6.092;2023-04-19T09:17:15;99896.59;;;15.42;54.71
23953;BME280;12163;49.316;6.092;2023-04-19T09:19:49;99898.56;;;15.50;54.35
23953;BME280;12163;49.316;6.092;2023-04-19T09:22:16;99899.59;;;15.54;53.71
23953;BME280;12163;49.316;6.092;2023-04-19T09:24:43;99889.38;;;15.60;54.12
23953;BME280;12163;49.316;6.092;2023-04-19T09:27:16;99894.38;;;15.66;53.94
23953;BME280;12163;49.316;6.092;2023-04-19T09:29:52;99896.66;;;15.73;53.31
23953;BME280;12163;49.316;6.092;2023-04-19T09:32:20;99886.97;;;15.80;52.89
23953;BME280;12163;49.316;6.092;2023-04-19T09:34:54;99895.00;;;15.85;52.66
23953;BME280;12163;49.316;6.092;2023-04-19T09:37:22;99890.34;;;15.86;52.77
23953;BME280;12163;49.316;6.092;2023-04-19T09:40:24;99887.19;;;15.92;52.22
23953;BME280;12163;49.316;6.092;2023-04-19T09:42:53;99881.31;;;15.99;52.42
23953;BME280;12163;49.316;6.092;2023-04-19T09:45:22;99886.78;;;16.07;52.23
23953;BME280;12163;49.316;6.092;2023-04-19T09:48:03;99871.78;;;16.18;51.58
23953;BME280;12163;49.316;6.092;2023-04-19T09:50:31;99877.59;;;16.25;51.42
23953;BME280;12163;49.316;6.092;2023-04-19T09:53:02;99881.28;;;16.29;51.61
23953;BME280;12163;49.316;6.092;2023-04-19T09:55:29;99874.88;;;16.25;50.52
23953;BME280;12163;49.316;6.092;2023-04-19T09:58:10;99868.44;;;16.21;51.25
23953;BME280;12163;49.316;6.092;2023-04-19T10:00:38;99864.94;;;16.29;51.04
23953;BME280;12163;49.316;6.092;2023-04-19T10:03:16;99859.22;;;16.39;50.81
23953;BME280;12163;49.316;6.092;2023-04-19T10:05:44;99862.78;;;16.40;50.63
23953;BME280;12163;49.316;6.092;2023-04-19T10:08:11;99856.88;;;16.46;50.69
23953;BME280;12163;49.316;6.092;2023-04-19T10:10:39;99854.34;;;16.58;50.04
23953;BME280;12163;49.316;6.092;2023-04-19T10:13:12;99841.38;;;16.64;49.98
23953;BME280;12163;49.316;6.092;2023-04-19T10:15:41;99849.72;;;16.76;50.33
23953;BME280;12163;49.316;6.092;2023-04-19T10:18:19;99849.25;;;16.91;49.16
23953;BME280;12163;49.316;6.092;2023-04-19T10:20:55;99836.78;;;16.98;49.46
23953;BME280;12163;49.316;6.092;2023-04-19T10:23:22;99829.38;;;17.07;48.58
23953;BME280;12163;49.316;6.092;2023-04-19T10:25:55;99835.00;;;17.19;48.81
23953;BME280;12163;49.316;6.092;2023-04-19T10:28:23;99828.44;;;17.20;48.60
23953;BME280;12163;49.316;6.092;2023-04-19T10:31:00;99822.50;;;17.26;48.69
23953;BME280;12163;49.316;6.092;2023-04-19T10:33:36;99823.47;;;17.30;48.46
23953;BME280;12163;49.316;6.092;2023-04-19T10:36:03;99822.19;;;17.36;48.38
23953;BME280;12163;49.316;6.092;2023-04-19T10:38:44;99817.06;;;17.43;47.83
23953;BME280;12163;49.316;6.092;2023-04-19T10:41:15;99812.69;;;17.51;47.55
23953;BME280;12163;49.316;6.092;2023-04-19T10:44:08;99819.63;;;17.48;46.52
23953;BME280;12163;49.316;6.092;2023-04-19T10:46:38;99809.38;;;17.37;46.05
23953;BME280;12163;49.316;6.092;2023-04-19T10:49:06;99807.88;;;17.31;46.33
23953;BME280;12163;49.316;6.092;2023-04-19T10:51:36;99803.44;;;17.35;46.29
23953;BME280;12163;49.316;6.092;2023-04-19T10:54:27;99800.38;;;17.36;45.95
23953;BME280;12163;49.316;6.092;2023-04-19T10:59:35;99788.81;;;17.39;45.70
23953;BME280;12163;49.316;6.092;2023-04-19T11:02:03;99788.66;;;17.36;46.44
23953;BME280;12163;49.316;6.092;2023-04-19T11:07:00;99791.53;;;17.39;44.65
23953;BME280;12163;49.316;6.092;2023-04-19T11:09:35;99793.94;;;17.49;45.07
23953;BME280;12163;49.316;6.092;2023-04-19T11:12:09;99784.25;;;17.60;44.71
23953;BME280;12163;49.316;6.092;2023-04-19T11:14:43;99775.41;;;17.72;43.37
23953;BME280;12163;49.316;6.092;2023-04-19T11:17:20;99782.47;;;17.73;43.72
23953;BME280;12163;49.316;6.092;2023-04-19T11:20:00;99778.47;;;17.70;42.69
23953;BME280;12163;49.316;6.092;2023-04-19T11:22:32;99767.69;;;17.74;43.48
23953;BME280;12163;49.316;6.092;2023-04-19T11:27:33;99766.31;;;17.97;45.21
23953;BME280;12163;49.316;6.092;2023-04-19T11:30:05;99747.97;;;18.06;45.74
23953;BME280;12163;49.316;6.092;2023-04-19T11:32:33;99750.50;;;18.11;45.67
23953;BME280;12163;49.316;6.092;2023-04-19T11:35:05;99758.06;;;18.05;44.84
23953;BME280;12163;49.316;6.092;2023-04-19T11:37:34;99749.72;;;18.10;45.65
23953;BME280;12163;49.316;6.092;2023-04-19T11:40:02;99738.91;;;18.14;45.29
23953;BME280;12163;49.316;6.092;2023-04-19T11:42:31;99738.25;;;18.17;44.93
23953;BME280;12163;49.316;6.092;2023-04-19T11:44:59;99737.47;;;18.16;44.99
23953;BME280;12163;49.316;6.092;2023-04-19T11:47:26;99734.69;;;18.25;45.07
23953;BME280;12163;49.316;6.092;2023-04-19T11:49:55;99725.94;;;18.40;44.47
23953;BME280;12163;49.316;6.092;2023-04-19T11:52:24;99728.03;;;18.43;44.37
23953;BME280;12163;49.316;6.092;2023-04-19T11:54:51;99724.72;;;18.29;43.79
23953;BME280;12163;49.316;6.092;2023-04-19T11:57:29;99729.00;;;18.09;44.11
23953;BME280;12163;49.316;6.092;2023-04-19T12:00:07;99725.53;;;17.92;44.60
23953;BME280;12163;49.316;6.092;2023-04-19T12:02:39;99721.59;;;17.81;45.15
23953;BME280;12163;49.316;6.092;2023-04-19T12:05:11;99721.63;;;17.72;45.48
23953;BME280;12163;49.316;6.092;2023-04-19T12:08:17;99734.34;;;17.60;45.73
23953;BME280;12163;49.316;6.092;2023-04-19T12:10:56;99737.31;;;17.38;45.60
23953;BME280;12163;49.316;6.092;2023-04-19T12:13:26;99726.53;;;17.33;46.42
23953;BME280;12163;49.316;6.092;2023-04-19T12:15:52;99729.44;;;17.36;46.82
23953;BME280;12163;49.316;6.092;2023-04-19T12:18:19;99713.53;;;17.47;46.63
23953;BME280;12163;49.316;6.092;2023-04-19T12:20:47;99715.44;;;17.55;45.77
23953;BME280;12163;49.316;6.092;2023-04-19T12:23:15;99713.03;;;17.53;46.02
23953;BME280;12163;49.316;6.092;2023-04-19T12:25:44;99711.59;;;17.56;46.28
23953;BME280;12163;49.316;6.092;2023-04-19T12:28:12;99715.72;;;17.62;46.06
23953;BME280;12163;49.316;6.092;2023-04-19T12:30:40;99720.53;;;17.65;46.34
23953;BME280;12163;49.316;6.092;2023-04-19T12:33:07;99705.13;;;17.60;46.21
23953;BME280;12163;49.316;6.092;2023-04-19T12:35:34;99702.41;;;17.52;45.86
23953;BME280;12163;49.316;6.092;2023-04-19T12:38:01;99707.59;;;17.45;46.91
23953;BME280;12163;49.316;6.092;2023-04-19T12:40:30;99717.88;;;17.39;45.99
23953;BME280;12163;49.316;6.092;2023-04-19T12:42:57;99700.72;;;17.30;46.93
23953;BME280;12163;49.316;6.092;2023-04-19T12:45:24;99708.25;;;17.25;47.31
23953;BME280;12163;49.316;6.092;2023-04-19T12:47:50;99702.31;;;17.23;46.70
23953;BME280;12163;49.316;6.092;2023-04-19T12:50:17;99700.72;;;17.22;47.51
23953;BME280;12163;49.316;6.092;2023-04-19T12:52:44;99702.31;;;17.23;47.77
23953;BME280;12163;49.316;6.092;2023-04-19T12:55:11;99702.03;;;17.16;47.67
23953;BME280;12163;49.316;6.092;2023-04-19T12:57:38;99696.91;;;17.06;48.00
23953;BME280;12163;49.316;6.092;2023-04-19T13:00:05;99691.81;;;16.96;48.05
23953;BME280;12163;49.316;6.092;2023-04-19T13:02:33;99695.34;;;16.88;48.37
23953;BME280;12163;49.316;6.092;2023-04-19T13:05:00;99696.31;;;16.75;48.04
23953;BME280;12163;49.316;6.092;2023-04-19T13:07:27;99689.09;;;16.71;49.05
23953;BME280;12163;49.316;6.092;2023-04-19T13:09:54;99684.94;;;16.65;49.13
23953;BME280;12163;49.316;6.092;2023-04-19T13:12:22;99690.38;;;16.65;49.34
23953;BME280;12163;49.316;6.092;2023-04-19T13:14:49;99678.84;;;16.68;49.44
23953;BME280;12163;49.316;6.092;2023-04-19T13:17:18;99679.97;;;16.67;49.05
23953;BME280;12163;49.316;6.092;2023-04-19T13:19:45;99675.31;;;16.67;49.58